Aérodrome :







RETROUVEZ-NOUS SUR...

 
LOGIN :

S'inscrire | Disclaimer

   EN    FR    IT 

 









Légende :    VFR   VFR Marginal   IFR   IFR Intensif   IFR Très Intensif
Visi : 
Plafond : 
>= 8 km
>= 3000ft
5 à 8 km
1000 à 3000 ft
1500m à 5 km
500 à 1000 ft
800 à 1500m
200 à 500 ft
< 800m
< 200 ft
Symboles :   Orages  Brouillard  Fortes neiges  Fortes précipitations  Vent > 20 kt






- Altitude de l'aérodrome : 1442 ft
- Code IATA : ZUM


CZUM - Churchill Falls

DERNIER METAR :
  • 221222Z AUTO 13008KT 3SM -SN OVC018 M06/M07 A2956 RMK SLP041

METARs EXPIRÉS :
  • 221209Z AUTO 13007KT 2SM -SN OVC022 M06/M07 A2957 RMK VIS VRB 1 1/4-3 SLP045
  • 221208Z AUTO 13006KT 2 1/2SM -SN OVC024 M06/M07 A2957 RMK VIS VRB 1 1/4-3 SLP045
  • 221100Z AUTO 13005KT 9SM -SN OVC045 M06/M08 A2960 RMK SLP054
  • 221044Z AUTO 12007KT 9SM -SN BKN040 OVC070 M06/M08 A2961 RMK SLP056
  • 221000Z AUTO 13003KT 090V170 9SM SCT013 OVC075 M06/M08 A2962 RMK SLP061
  • 220956Z AUTO 13004KT 090V170 9SM SCT013 OVC070 M06/M08 A2962 RMK SLP062

TAF TAF CZUM
Valide du 22 à 08h jusqu'au 22 à 20h UTC


220738Z 2208/2220 15005KT P6SM FEW020 OVC060
TEMPO 2208/2212 BKN020 OVC060
BECMG 2208/2210 13008KT
FM221200 13008G18KT P6SM SCT012 OVC025
TEMPO 2212/2216 2SM -SN OVC010
FM221600 13010G20KT 1SM -SN OVC006
TEMPO 2216/2220 3SM -SN OVC010 RMK FCST BASED ON AUTO OBS. NXT FCST BY 221400Z



MET'MAP, la Météo Aéronautique d'un coup d'oeil ! - Copyright ORBIFLY Décembre 2007 - Disclaimer

ORBIFLY MET'MAP TEAM :

Programmation & Développement : Alexandra Zaïnal
Conception & Développement : Baudouin d'Aumeries
Co-Programmation & Développement : Marc-Olivier Méhu
Soutien technique & logistique : Manuel Goepfert

Contact : metmap@orbifly.com




SOURCES & CREDITS :

   NOAA